Time;durP1;ratioP1;P1;durP2;ratioP2;P2;SDS_P1;SDS_P2;PMS_P1;PMS_P2;Temp;Humidity;BMP_temperature;BMP_pressure;BME280_temperature;BME280_humidity;BME280_pressure;Samples;Min_cycle;Max_cycle;Signal;HPM_P1;HPM_P2
2023/09/07 00:02:22;;;;;;;10.05;3.42;;;;;;;25.29;37.59;98781.41;5090471;28;20119;-45
2023/09/07 00:04:49;;;;;;;15.75;4.22;;;;;;;25.36;37.11;98775.66;5090385;28;20424;-45
2023/09/07 00:07:15;;;;;;;12.75;4.53;;;;;;;25.37;36.90;98773.75;5091685;28;20016;-45
2023/09/07 00:09:41;;;;;;;7.82;3.03;;;;;;;25.47;36.77;98785.13;5091691;28;20078;-45
2023/09/07 00:12:06;;;;;;;7.03;3.17;;;;;;;25.34;36.65;98779.72;5091653;28;20040;-45
2023/09/07 00:14:32;;;;;;;6.60;2.88;;;;;;;25.20;36.96;98772.41;5091532;28;20456;-45
2023/09/07 00:16:58;;;;;;;7.15;2.90;;;;;;;25.24;36.68;98788.75;5091631;28;20119;-45
2023/09/07 00:19:23;;;;;;;11.05;3.40;;;;;;;24.93;36.97;98783.81;5091660;28;20168;-45
2023/09/07 00:21:51;;;;;;;12.88;5.00;;;;;;;24.85;37.90;98781.81;5091620;28;20074;-45
2023/09/07 00:24:17;;;;;;;7.70;3.03;;;;;;;25.25;36.98;98782.28;5091683;28;20550;-45
2023/09/07 00:26:45;;;;;;;12.85;4.18;;;;;;;25.40;36.86;98773.16;5091459;28;20016;-45
2023/09/07 00:29:10;;;;;;;8.57;3.67;;;;;;;25.54;37.00;98773.97;5090244;28;20016;-45
2023/09/07 00:31:36;;;;;;;7.72;3.63;;;;;;;25.68;36.56;98769.41;5090214;28;20035;-46
2023/09/07 00:34:02;;;;;;;11.55;3.92;;;;;;;25.76;36.09;98780.59;5091749;28;20039;-45
2023/09/07 00:36:28;;;;;;;14.63;3.75;;;;;;;25.60;36.31;98772.78;5091440;28;20025;-45
2023/09/07 00:38:53;;;;;;;16.52;4.55;;;;;;;25.58;36.51;98774.97;5090457;28;20024;-45
2023/09/07 00:41:19;;;;;;;13.48;4.18;;;;;;;25.55;36.13;98783.63;5091451;28;20028;-45
2023/09/07 00:43:45;;;;;;;5.97;2.92;;;;;;;25.47;36.23;98782.44;5091486;28;20489;-45
2023/09/07 00:46:11;;;;;;;12.18;4.10;;;;;;;25.59;36.45;98773.88;5090018;28;20024;-45
2023/09/07 00:48:38;;;;;;;25.65;4.90;;;;;;;25.71;36.45;98774.19;5091343;28;20020;-45
2023/09/07 00:51:03;;;;;;;11.05;3.33;;;;;;;25.58;35.96;98776.88;5090040;28;20032;-45
2023/09/07 00:53:29;;;;;;;16.30;3.80;;;;;;;25.55;36.76;98772.09;5091392;28;20028;-45
2023/09/07 00:55:56;;;;;;;9.35;3.20;;;;;;;25.74;36.28;98762.06;5089917;28;20036;-45
2023/09/07 00:58:22;;;;;;;17.58;3.70;;;;;;;25.79;35.84;98767.31;5090241;28;20028;-45
2023/09/07 01:00:48;;;;;;;8.80;3.65;;;;;;;25.88;35.86;98767.44;5090087;28;20036;-45
2023/09/07 01:03:14;;;;;;;13.23;3.30;;;;;;;26.08;35.48;98772.44;5089896;28;20062;-45
2023/09/07 01:06:07;;;;;;;12.93;3.90;;;;;;;26.06;35.29;98774.63;5091404;28;20028;-45
2023/09/07 01:08:39;;;;;;;8.93;2.90;;;;;;;25.89;35.58;98761.75;5093575;28;20450;-45
2023/09/07 01:11:20;;;;;;;15.68;3.72;;;;;;;25.90;35.86;98767.97;5093860;28;20039;-45
2023/09/07 01:13:46;;;;;;;9.48;3.28;;;;;;;25.96;35.64;98771.31;5094652;28;20061;-45
2023/09/07 01:16:13;;;;;;;8.65;3.08;;;;;;;25.54;35.92;98767.81;5093771;28;20413;-45
2023/09/07 01:18:42;;;;;;;8.00;3.15;;;;;;;25.14;36.65;98762.81;5094672;28;20024;-45
2023/09/07 01:21:08;;;;;;;5.65;3.22;;;;;;;25.02;36.78;98757.91;5093301;28;20020;-45
2023/09/07 01:23:42;;;;;;;13.82;4.43;;;;;;;24.97;37.58;98763.38;5094574;28;20035;-45
2023/09/07 01:26:09;;;;;;;8.35;3.30;;;;;;;25.01;37.23;98763.56;5094521;28;20031;-45
2023/09/07 01:28:36;;;;;;;18.65;4.45;;;;;;;25.00;37.80;98760.09;5094484;28;20028;-45
2023/09/07 01:31:02;;;;;;;8.35;3.78;;;;;;;25.01;37.43;98763.56;5094407;28;20020;-45
2023/09/07 01:33:28;;;;;;;8.52;3.47;;;;;;;25.01;37.16;98760.88;5093094;28;20062;-45
2023/09/07 01:35:54;;;;;;;10.80;3.80;;;;;;;25.03;37.52;98754.16;5076165;28;20513;-45
2023/09/07 01:38:19;;;;;;;11.75;3.60;;;;;;;25.08;37.34;98747.91;5092994;28;20123;-45
2023/09/07 01:40:46;;;;;;;18.98;4.90;;;;;;;25.25;37.55;98753.53;5092924;28;20060;-45
2023/09/07 01:43:11;;;;;;;15.50;3.78;;;;;;;25.49;36.86;98755.25;5094485;28;20035;-45
2023/09/07 01:45:37;;;;;;;8.23;2.97;;;;;;;25.59;36.28;98752.38;5094054;28;20424;-45
2023/09/07 01:48:06;;;;;;;11.77;3.85;;;;;;;25.30;36.96;98753.44;5094166;28;20024;-46
2023/09/07 01:50:31;;;;;;;13.05;3.88;;;;;;;25.28;36.87;98750.25;5094076;28;20020;-45
2023/09/07 01:52:57;;;;;;;6.68;3.38;;;;;;;25.08;36.61;98762.09;5094063;28;20036;-45
2023/09/07 01:55:22;;;;;;;10.82;3.40;;;;;;;24.57;37.73;98759.41;5094042;28;20028;-45
2023/09/07 01:57:48;;;;;;;6.30;3.15;;;;;;;24.43;37.88;98753.97;5092562;28;20036;-45
2023/09/07 02:00:14;;;;;;;10.32;3.28;;;;;;;24.30;38.60;98758.16;5093928;28;20028;-45
2023/09/07 02:02:39;;;;;;;8.93;2.72;;;;;;;24.14;38.07;98765.59;5093901;28;20030;-45
2023/09/07 02:05:05;;;;;;;5.40;3.20;;;;;;;23.85;38.99;98758.44;5093801;28;20058;-45
2023/09/07 02:07:31;;;;;;;5.15;3.30;;;;;;;23.67;39.42;98764.50;5093779;28;20020;-45
2023/09/07 02:09:56;;;;;;;10.45;3.47;;;;;;;23.49;39.53;98760.69;5093727;28;20489;-45
2023/09/07 02:12:22;;;;;;;6.38;3.30;;;;;;;23.40;39.72;98768.53;5093626;28;20028;-45
2023/09/07 02:14:48;;;;;;;8.95;3.55;;;;;;;23.40;39.69;98762.38;5093300;28;20048;-45
2023/09/07 02:17:17;;;;;;;12.93;4.75;;;;;;;23.30;40.30;98763.25;5092424;28;20052;-45
2023/09/07 02:19:44;;;;;;;11.75;4.18;;;;;;;23.37;40.16;98761.06;5092168;28;20401;-45
2023/09/07 02:22:10;;;;;;;5.22;3.05;;;;;;;23.35;40.32;98765.09;5093464;28;20111;-45
2023/09/07 02:24:35;;;;;;;8.50;3.83;;;;;;;23.30;40.45;98772.09;5093364;28;20561;-45
2023/09/07 02:27:01;;;;;;;9.30;3.40;;;;;;;23.41;40.28;98780.03;5091976;28;20052;-45
2023/09/07 02:29:27;;;;;;;7.93;3.13;;;;;;;23.27;40.00;98778.00;5093289;28;20024;-45
2023/09/07 02:31:52;;;;;;;8.25;3.20;;;;;;;23.15;40.67;98774.91;5093263;28;20028;-45
2023/09/07 02:34:18;;;;;;;7.32;3.50;;;;;;;23.24;40.55;98770.56;5092257;28;20032;-45
2023/09/07 02:36:44;;;;;;;5.13;3.20;;;;;;;23.19;40.29;98772.47;5092074;28;20054;-45
2023/09/07 02:39:11;;;;;;;7.97;3.03;;;;;;;23.13;40.90;98775.19;5093083;28;20102;-45
2023/09/07 02:41:38;;;;;;;6.65;2.92;;;;;;;23.00;40.85;98775.00;5092957;28;20107;-45
2023/09/07 02:44:04;;;;;;;6.43;3.40;;;;;;;22.81;41.27;98774.88;5091996;28;20056;-45
2023/09/07 02:46:30;;;;;;;7.60;3.45;;;;;;;22.70;41.24;98782.19;5092830;28;20028;-45
2023/09/07 02:48:57;;;;;;;5.40;2.90;;;;;;;22.68;41.25;98787.81;5091644;28;20065;-45
2023/09/07 02:51:25;;;;;;;8.07;3.30;;;;;;;22.78;41.43;98780.78;5093139;28;20511;-45
2023/09/07 02:53:51;;;;;;;4.60;3.03;;;;;;;22.85;41.32;98782.06;5093149;28;20397;-45
2023/09/07 02:56:17;;;;;;;6.68;3.60;;;;;;;22.89;41.24;98787.66;5092725;28;20044;-45
2023/09/07 02:58:43;;;;;;;11.65;3.90;;;;;;;22.84;41.37;98785.81;5092761;28;20032;-45
2023/09/07 03:01:08;;;;;;;7.85;3.42;;;;;;;22.90;41.19;98783.91;5091373;28;20048;-45
2023/09/07 03:03:35;;;;;;;5.63;3.13;;;;;;;22.88;41.23;98780.72;5092963;28;20388;-45
2023/09/07 03:06:11;;;;;;;12.63;3.28;;;;;;;22.73;41.59;98785.06;5092601;28;20482;-45
2023/09/07 03:08:37;;;;;;;4.93;3.03;;;;;;;22.71;41.36;98773.06;5092618;28;20038;-45
2023/09/07 03:11:07;;;;;;;7.50;3.10;;;;;;;22.64;41.92;98781.41;5091185;28;20020;-45
2023/09/07 03:13:32;;;;;;;6.63;3.28;;;;;;;22.52;42.30;98767.56;5092227;28;20028;-47
2023/09/07 03:15:59;;;;;;;8.85;3.10;;;;;;;22.38;42.51;98775.41;5091198;28;20038;-45
2023/09/07 03:18:25;;;;;;;4.95;3.13;;;;;;;22.26;42.43;98769.59;5092380;28;20028;-45
2023/09/07 03:20:55;;;;;;;5.93;3.08;;;;;;;22.18;42.90;98778.16;5091312;28;20028;-45
2023/09/07 03:23:21;;;;;;;4.50;3.13;;;;;;;22.07;42.97;98782.72;5092320;28;20017;-45
2023/09/07 03:25:46;;;;;;;6.43;3.30;;;;;;;22.01;43.19;98784.59;5091209;28;20039;-45
2023/09/07 03:28:12;;;;;;;5.28;3.13;;;;;;;22.00;43.94;98780.34;5090892;28;20027;-45
2023/09/07 03:30:38;;;;;;;5.18;3.25;;;;;;;21.90;44.09;98788.41;5092105;28;20028;-45
2023/09/07 03:33:05;;;;;;;7.43;3.33;;;;;;;21.79;44.29;98786.81;5092193;28;20052;-44
2023/09/07 03:35:31;;;;;;;4.68;3.30;;;;;;;21.67;44.42;98787.94;5091122;28;20035;-45
2023/09/07 03:37:56;;;;;;;6.65;3.60;;;;;;;21.67;44.71;98789.78;5092103;28;20028;-45
2023/09/07 03:40:22;;;;;;;5.72;3.70;;;;;;;21.65;44.54;98797.25;5092064;28;20107;-45
2023/09/07 03:42:47;;;;;;;6.30;3.75;;;;;;;21.58;45.47;98797.56;5090768;28;20508;-45
2023/09/07 03:45:13;;;;;;;7.50;3.50;;;;;;;21.53;45.72;98800.22;5090871;28;20508;-45
2023/09/07 03:47:39;;;;;;;7.32;3.88;;;;;;;21.49;45.37;98799.16;5090603;28;20489;-45
2023/09/07 03:50:05;;;;;;;5.50;3.72;;;;;;;21.43;45.60;98792.22;5091926;28;20024;-45
2023/09/07 03:52:31;;;;;;;12.82;3.72;;;;;;;21.51;45.73;98797.03;5091827;28;20397;-45
2023/09/07 03:54:57;;;;;;;7.78;3.65;;;;;;;21.35;46.61;98802.34;5092142;28;20020;-45
2023/09/07 03:57:25;;;;;;;5.82;3.40;;;;;;;21.25;46.63;98804.22;5091985;28;20460;-45
2023/09/07 03:59:50;;;;;;;7.55;3.33;;;;;;;21.18;47.31;98799.16;5090794;28;20370;-45
2023/09/07 04:02:20;;;;;;;7.18;3.70;;;;;;;21.10;47.87;98797.03;5091830;28;20061;-45
2023/09/07 04:04:53;;;;;;;6.63;4.05;;;;;;;21.01;47.69;98798.63;5091795;28;20024;-45
2023/09/07 04:07:19;;;;;;;4.70;3.35;;;;;;;20.92;48.37;98798.34;5091708;28;20017;-45
2023/09/07 04:09:45;;;;;;;7.97;4.07;;;;;;;20.90;48.62;98803.13;5090427;28;20400;-45
2023/09/07 04:12:11;;;;;;;9.48;3.25;;;;;;;20.87;48.71;98803.69;5091735;28;20020;-45
2023/09/07 04:14:38;;;;;;;5.53;3.50;;;;;;;20.79;49.40;98812.22;5090015;28;20505;-45
2023/09/07 04:17:04;;;;;;;7.35;3.72;;;;;;;20.70;49.61;98809.22;5091628;28;20039;-45
2023/09/07 04:19:30;;;;;;;10.75;4.10;;;;;;;20.61;50.15;98794.84;5091668;28;20035;-45
2023/09/07 04:21:57;;;;;;;9.07;3.85;;;;;;;20.61;49.76;98802.84;5091686;28;20049;-45
2023/09/07 04:24:23;;;;;;;9.88;3.70;;;;;;;20.74;49.61;98805.81;5091818;28;20366;-45
2023/09/07 04:26:49;;;;;;;15.23;3.80;;;;;;;20.66;49.62;98810.81;5091587;28;20027;-45
2023/09/07 04:29:15;;;;;;;9.40;3.60;;;;;;;20.59;50.07;98807.63;5091579;28;20065;-45
2023/09/07 04:31:41;;;;;;;9.43;4.00;;;;;;;20.55;50.29;98807.31;5090539;28;20428;-45
2023/09/07 04:34:07;;;;;;;7.68;4.32;;;;;;;20.57;50.09;98805.19;5090286;28;20020;-45
2023/09/07 04:36:33;;;;;;;6.22;4.25;;;;;;;20.54;50.18;98811.03;5090487;28;20393;-45
2023/09/07 04:38:59;;;;;;;7.13;3.70;;;;;;;20.49;50.40;98811.81;5091692;28;20024;-45
2023/09/07 04:41:25;;;;;;;12.20;4.65;;;;;;;20.50;49.79;98808.09;5094252;28;20028;-45
2023/09/07 04:43:50;;;;;;;7.47;3.70;;;;;;;20.54;49.67;98816.38;5095330;28;20024;-45
2023/09/07 04:46:16;;;;;;;5.68;4.00;;;;;;;20.61;49.34;98814.28;5094120;28;20054;-45
2023/09/07 04:48:43;;;;;;;7.47;3.75;;;;;;;20.68;49.34;98817.50;5095253;28;20031;-45
2023/09/07 04:51:12;;;;;;;7.47;3.58;;;;;;;20.68;48.70;98816.69;5093878;28;20165;-45
2023/09/07 04:53:38;;;;;;;7.32;3.83;;;;;;;20.78;47.94;98822.06;5094113;28;20020;-45
2023/09/07 04:56:05;;;;;;;6.95;3.78;;;;;;;20.82;48.15;98817.00;5093741;28;20511;-45
2023/09/07 04:58:31;;;;;;;8.52;4.13;;;;;;;20.87;47.98;98809.81;5095017;28;20044;-45
2023/09/07 05:01:04;;;;;;;6.85;3.28;;;;;;;20.90;48.01;98809.25;5094944;28;20028;-45
2023/09/07 05:03:30;;;;;;;6.85;3.30;;;;;;;20.89;47.49;98820.22;5094943;28;20050;-45
2023/09/07 05:05:56;;;;;;;8.70;3.33;;;;;;;20.93;47.22;98822.09;5094847;28;20113;-45
2023/09/07 05:08:24;;;;;;;6.15;3.90;;;;;;;20.92;47.22;98823.13;5093498;28;20032;-45
2023/09/07 05:10:55;;;;;;;7.07;3.13;;;;;;;20.91;46.54;98826.88;5094830;28;20024;-45
2023/09/07 05:13:21;;;;;;;7.78;3.45;;;;;;;21.01;46.63;98822.66;5094846;28;20028;-45
2023/09/07 05:15:51;;;;;;;10.73;3.85;;;;;;;21.20;47.04;98822.91;5094482;28;20429;-45
2023/09/07 05:18:17;;;;;;;6.07;3.70;;;;;;;21.21;46.69;98835.19;5094697;28;20516;-45
2023/09/07 05:20:46;;;;;;;10.93;3.47;;;;;;;21.19;46.79;98835.47;5094655;28;20028;-45
2023/09/07 05:23:15;;;;;;;7.35;3.88;;;;;;;21.19;46.54;98830.13;5094898;28;20032;-45
2023/09/07 05:25:45;;;;;;;12.00;3.83;;;;;;;21.38;47.13;98835.72;5093194;28;20032;-45
2023/09/07 05:28:13;;;;;;;10.02;3.63;;;;;;;21.63;46.86;98842.97;5093446;28;20709;-45
2023/09/07 05:30:39;;;;;;;9.13;4.05;;;;;;;21.84;46.55;98845.59;5093078;28;20028;-45
2023/09/07 05:33:04;;;;;;;6.38;3.88;;;;;;;22.09;45.07;98848.22;5094340;28;20069;-45
2023/09/07 05:35:32;;;;;;;12.43;4.45;;;;;;;22.47;44.34;98845.94;5093022;28;20111;-45
2023/09/07 05:37:58;;;;;;;8.32;3.47;;;;;;;22.81;43.79;98845.25;5094372;28;20040;-45
2023/09/07 05:40:24;;;;;;;4.15;3.70;;;;;;;23.07;43.23;98853.94;5094200;28;20055;-45
2023/09/07 05:42:50;;;;;;;8.45;3.90;;;;;;;23.23;43.37;98849.28;5093177;28;20039;-45
2023/09/07 05:45:16;;;;;;;7.43;3.88;;;;;;;23.38;43.35;98844.88;5094028;28;20028;-45
2023/09/07 05:47:41;;;;;;;8.65;3.72;;;;;;;23.57;42.52;98845.00;5094140;28;20020;-45
2023/09/07 05:50:07;;;;;;;6.15;3.70;;;;;;;23.78;41.94;98851.78;5094111;28;20020;-45
2023/09/07 05:52:33;;;;;;;8.38;3.78;;;;;;;23.97;41.92;98843.03;5093807;28;20024;-45
2023/09/07 05:54:59;;;;;;;6.78;3.78;;;;;;;24.09;41.61;98846.91;5094000;28;20082;-45
2023/09/07 05:57:24;;;;;;;6.43;3.88;;;;;;;24.29;41.39;98850.44;5093910;28;20052;-45
2023/09/07 05:59:50;;;;;;;12.27;4.25;;;;;;;24.41;40.90;98856.19;5093950;28;20020;-46
2023/09/07 06:02:16;;;;;;;6.15;3.75;;;;;;;24.56;40.66;98851.75;5093853;28;20016;-45
2023/09/07 06:04:41;;;;;;;8.80;3.78;;;;;;;25.00;40.18;98851.41;5093827;28;20103;-45
2023/09/07 06:07:07;;;;;;;10.60;4.03;;;;;;;25.25;39.47;98855.63;5093649;28;20051;-45
2023/09/07 06:09:33;;;;;;;25.15;7.78;;;;;;;25.39;38.92;98858.34;5093644;28;20028;-45
2023/09/07 06:11:58;;;;;;;10.35;3.30;;;;;;;25.51;38.78;98857.88;5093654;28;20024;-45
2023/09/07 06:14:24;;;;;;;8.70;4.03;;;;;;;25.40;38.92;98859.94;5093311;28;20115;-45
2023/09/07 06:16:50;;;;;;;11.15;3.92;;;;;;;25.42;38.93;98863.13;5092259;28;20123;-45
2023/09/07 06:19:15;;;;;;;9.75;3.95;;;;;;;25.31;38.96;98859.81;5092177;28;20107;-45
2023/09/07 06:21:41;;;;;;;7.32;4.18;;;;;;;25.41;39.39;98858.03;5092469;28;20086;-45
2023/09/07 06:24:07;;;;;;;7.57;3.70;;;;;;;25.48;38.73;98861.16;5092076;28;20028;-45
2023/09/07 06:26:33;;;;;;;7.25;4.10;;;;;;;25.67;38.85;98856.50;5093237;28;20024;-45
2023/09/07 06:28:59;;;;;;;10.20;4.40;;;;;;;25.81;38.28;98858.44;5092317;28;20020;-45
2023/09/07 06:31:24;;;;;;;10.70;4.03;;;;;;;26.02;37.86;98869.66;5093193;28;20028;-45
2023/09/07 06:33:50;;;;;;;12.45;3.97;;;;;;;25.87;38.42;98865.31;5093264;28;20031;-45
2023/09/07 06:36:16;;;;;;;7.28;3.80;;;;;;;26.03;38.34;98869.34;5093131;28;20378;-45
2023/09/07 06:38:41;;;;;;;5.88;3.70;;;;;;;26.09;38.11;98870.06;5093140;28;20486;-45
2023/09/07 06:41:07;;;;;;;10.55;3.97;;;;;;;26.39;37.91;98865.16;5093041;28;20093;-45
2023/09/07 06:43:33;;;;;;;10.40;3.90;;;;;;;26.67;37.06;98866.75;5093344;28;20048;-45
2023/09/07 06:46:09;;;;;;;13.40;4.03;;;;;;;27.26;36.20;98864.09;5091599;28;20048;-45
2023/09/07 06:48:35;;;;;;;12.57;3.63;;;;;;;28.27;35.07;98863.66;5091919;28;20118;-46
2023/09/07 06:51:05;;;;;;;70.32;8.05;;;;;;;28.86;33.31;98864.13;5092872;28;20111;-45
2023/09/07 06:53:31;;;;;;;62.70;7.50;;;;;;;29.24;32.96;98870.84;5091773;28;20024;-45
2023/09/07 06:56:01;;;;;;;20.95;4.75;;;;;;;29.44;32.07;98874.78;5092825;28;20039;-45
2023/09/07 06:58:28;;;;;;;10.90;3.65;;;;;;;30.06;31.70;98874.31;5074629;28;20024;-46
2023/09/07 07:00:58;;;;;;;21.27;4.53;;;;;;;30.67;30.87;98870.50;5091677;28;20489;-45
2023/09/07 07:03:28;;;;;;;14.90;4.80;;;;;;;31.22;30.34;98869.44;5091010;28;20020;-46
2023/09/07 07:05:54;;;;;;;9.75;3.47;;;;;;;31.75;29.21;98874.34;5092543;28;20016;-45
2023/09/07 07:08:19;;;;;;;12.00;3.42;;;;;;;31.67;28.65;98867.09;5092584;28;20028;-46
2023/09/07 07:10:45;;;;;;;13.32;3.42;;;;;;;31.74;27.86;98868.13;5092539;28;20030;-46
2023/09/07 07:13:11;;;;;;;25.05;4.05;;;;;;;31.52;28.47;98873.97;5092780;28;20385;-46
2023/09/07 07:15:37;;;;;;;8.60;3.50;;;;;;;31.41;28.35;98868.94;5090941;28;20048;-46
2023/09/07 07:18:08;;;;;;;30.52;4.72;;;;;;;32.08;28.76;98868.09;5091049;28;20431;-46
2023/09/07 07:20:37;;;;;;;16.55;3.90;;;;;;;32.69;27.01;98867.25;5092395;28;20123;-46
2023/09/07 07:23:03;;;;;;;30.95;5.55;;;;;;;32.75;27.18;98868.59;5092333;28;20069;-46
2023/09/07 07:25:31;;;;;;;12.40;4.03;;;;;;;32.96;26.21;98880.09;5074030;28;20379;-46
2023/09/07 07:27:56;;;;;;;12.48;3.67;;;;;;;32.91;26.65;98872.19;5092456;28;20020;-46
2023/09/07 07:30:22;;;;;;;9.52;3.42;;;;;;;33.48;25.74;98869.47;5092207;28;20031;-46
2023/09/07 07:32:48;;;;;;;5.50;2.83;;;;;;;33.20;25.09;98875.72;5090856;28;20161;-45
2023/09/07 07:35:14;;;;;;;9.00;3.20;;;;;;;33.24;25.83;98873.88;5092105;28;20035;-46
2023/09/07 07:37:40;;;;;;;10.18;3.03;;;;;;;33.60;24.46;98877.56;5090818;28;20099;-46
2023/09/07 07:40:06;;;;;;;24.95;4.35;;;;;;;34.31;24.08;98878.59;5090723;28;20161;-46
2023/09/07 07:42:32;;;;;;;13.18;3.35;;;;;;;34.84;22.82;98882.88;5092028;28;20073;-46
2023/09/07 07:44:57;;;;;;;23.15;3.95;;;;;;;34.87;22.16;98882.13;5092062;28;20020;-46
2023/09/07 07:47:23;;;;;;;6.65;2.70;;;;;;;35.15;21.83;98879.19;5091910;28;20031;-46
2023/09/07 07:49:49;;;;;;;6.03;2.63;;;;;;;35.59;21.32;98884.31;5092268;28;20099;-46
2023/09/07 07:52:14;;;;;;;9.05;3.33;;;;;;;35.85;20.77;98880.09;5091832;28;20032;-46
2023/09/07 07:54:40;;;;;;;13.45;3.58;;;;;;;35.51;21.15;98879.88;5091953;28;20052;-46
2023/09/07 07:57:06;;;;;;;12.85;3.10;;;;;;;35.24;21.38;98890.72;5091918;28;20027;-46
2023/09/07 07:59:33;;;;;;;8.20;3.30;;;;;;;35.27;21.57;98889.19;5091879;28;20024;-46
2023/09/07 08:01:59;;;;;;;14.40;3.35;;;;;;;35.53;21.39;98878.38;5091758;28;20070;-46
2023/09/07 08:04:25;;;;;;;11.20;3.00;;;;;;;35.44;21.65;98880.56;5091835;28;20040;-46
2023/09/07 08:06:54;;;;;;;71.15;7.53;;;;;;;36.00;21.29;98879.97;5091698;28;20020;-46
2023/09/07 08:09:19;;;;;;;32.33;5.47;;;;;;;36.73;20.50;98879.91;5091983;28;20043;-46
2023/09/07 08:11:45;;;;;;;9.45;3.17;;;;;;;37.36;20.13;98872.81;5092017;28;20481;-46
2023/09/07 08:14:11;;;;;;;4.97;2.55;;;;;;;37.68;18.87;98869.63;5092179;28;20036;-46
2023/09/07 08:16:37;;;;;;;119.25;9.85;;;;;;;37.76;19.62;98882.22;5094942;28;20032;-46
2023/09/07 08:19:03;;;;;;;37.30;5.45;;;;;;;38.19;18.86;98872.78;5095832;28;20063;-46
2023/09/07 08:21:29;;;;;;;10.63;2.63;;;;;;;38.29;19.19;98880.28;5095760;28;20035;-46
2023/09/07 08:23:55;;;;;;;15.10;2.90;;;;;;;38.73;18.85;98880.16;5095735;28;20402;-46
2023/09/07 08:26:21;;;;;;;7.50;2.70;;;;;;;39.00;18.77;98882.69;5095558;28;20107;-46
2023/09/07 08:28:47;;;;;;;8.45;2.65;;;;;;;39.05;18.03;98890.53;5095746;28;20454;-46
2023/09/07 08:31:20;;;;;;;5.95;2.58;;;;;;;38.76;18.68;98878.63;5094291;28;20020;-46
2023/09/07 08:33:46;;;;;;;13.32;3.03;;;;;;;37.45;19.81;98875.28;5095699;28;20112;-46
2023/09/07 08:36:12;;;;;;;4.20;2.67;;;;;;;37.01;20.28;98883.34;5094529;28;20107;-46
2023/09/07 08:38:38;;;;;;;7.43;2.83;;;;;;;37.47;19.92;98881.16;5095422;28;20031;-46
2023/09/07 08:41:05;;;;;;;7.35;2.70;;;;;;;37.54;20.37;98880.44;5077526;28;20032;-46
2023/09/07 08:43:34;;;;;;;16.20;3.40;;;;;;;37.45;20.34;98882.69;5095334;28;20089;-46
2023/09/07 08:46:14;;;;;;;11.00;2.92;;;;;;;37.92;19.99;98883.94;5095151;28;20031;-46
2023/09/07 08:48:43;;;;;;;13.02;3.58;;;;;;;38.61;19.44;98879.72;5095343;28;20039;-46
2023/09/07 08:51:11;;;;;;;16.08;3.63;;;;;;;39.20;19.11;98885.06;5095158;28;20073;-46
2023/09/07 08:53:39;;;;;;;25.70;4.93;;;;;;;38.98;19.14;98884.22;5095221;28;20047;-47
2023/09/07 08:56:09;;;;;;;7.57;2.97;;;;;;;38.52;18.78;98880.84;5095130;28;20182;-46
2023/09/07 08:58:36;;;;;;;3.97;2.90;;;;;;;37.47;19.99;98883.09;5095191;28;20039;-46
2023/09/07 09:01:02;;;;;;;4.63;2.78;;;;;;;36.57;20.74;98887.47;5094973;28;20024;-46
2023/09/07 09:03:29;;;;;;;7.03;3.20;;;;;;;35.89;22.03;98889.16;5095025;28;20026;-46
2023/09/07 09:05:56;;;;;;;14.20;4.00;;;;;;;35.82;22.24;98889.81;5094889;28;20371;-46
2023/09/07 09:08:24;;;;;;;12.35;3.20;;;;;;;36.23;22.21;98887.38;5095117;28;20028;-46
2023/09/07 09:11:02;;;;;;;8.73;3.28;;;;;;;36.70;21.29;98877.91;5094771;28;20020;-46
2023/09/07 09:13:30;;;;;;;8.10;2.85;;;;;;;36.72;21.70;98881.03;5095089;28;20042;-46
2023/09/07 09:15:56;;;;;;;10.43;3.05;;;;;;;36.45;21.30;98885.75;5093675;28;20039;-46
2023/09/07 09:18:21;;;;;;;7.18;2.92;;;;;;;36.37;21.62;98882.13;5094761;28;20035;-46
2023/09/07 09:20:48;;;;;;;23.85;4.75;;;;;;;36.66;21.59;98882.53;5094643;28;20485;-46
2023/09/07 09:23:15;;;;;;;7.25;3.08;;;;;;;37.50;20.57;98877.66;5093595;28;20027;-46
2023/09/07 09:25:41;;;;;;;12.23;3.72;;;;;;;37.87;20.53;98874.13;5094111;28;20023;-46
2023/09/07 09:28:11;;;;;;;6.45;2.30;;;;;;;38.22;19.53;98867.34;5094291;28;20024;-46
2023/09/07 09:30:37;;;;;;;7.95;2.92;;;;;;;37.74;20.34;98870.06;5094486;28;20020;-46
2023/09/07 09:33:05;;;;;;;9.70;3.05;;;;;;;38.04;20.53;98863.66;5093133;28;20034;-46
2023/09/07 09:35:31;;;;;;;16.30;3.20;;;;;;;38.58;19.45;98866.75;5094316;28;20039;-46
2023/09/07 09:38:04;;;;;;;7.18;3.03;;;;;;;38.24;19.98;98875.97;5094404;28;20024;-46
2023/09/07 09:40:37;;;;;;;12.38;3.28;;;;;;;38.57;19.90;98871.47;5093291;28;20032;-46
2023/09/07 09:43:03;;;;;;;10.38;3.03;;;;;;;39.38;19.39;98869.41;5094346;28;20036;-47
2023/09/07 09:45:30;;;;;;;8.77;2.70;;;;;;;40.15;18.02;98863.59;5092851;28;20115;-47
2023/09/07 09:47:58;;;;;;;7.75;2.67;;;;;;;39.76;18.30;98867.13;5094162;28;20069;-47
2023/09/07 09:50:24;;;;;;;10.52;2.88;;;;;;;39.00;19.10;98863.47;5094304;28;20389;-47
2023/09/07 09:52:53;;;;;;;32.55;4.80;;;;;;;38.79;19.42;98864.13;5092755;28;20026;-46
2023/09/07 09:55:19;;;;;;;7.32;2.78;;;;;;;38.90;19.69;98864.97;5094048;28;20067;-46
2023/09/07 09:57:45;;;;;;;5.78;2.80;;;;;;;39.05;19.50;98867.78;5093960;28;20044;-46
2023/09/07 10:02:57;;;;;;;16.30;3.17;;;;;;;40.02;18.68;98863.19;5093951;28;20051;-47
2023/09/07 10:05:23;;;;;;;4.63;2.50;;;;;;;40.83;18.13;98862.63;5093813;28;20020;-47
2023/09/07 10:07:50;;;;;;;6.97;2.75;;;;;;;41.19;17.64;98848.72;5093807;28;20056;-47
2023/09/07 10:10:18;;;;;;;17.73;3.95;;;;;;;41.79;17.21;98853.00;5093719;28;20016;-47
2023/09/07 10:12:50;;;;;;;20.25;4.40;;;;;;;42.06;16.94;98844.91;5093712;28;20059;-46
2023/09/07 10:15:21;;;;;;;13.60;3.28;;;;;;;41.75;16.81;98845.97;5092090;28;20059;-46
2023/09/07 10:17:49;;;;;;;6.28;2.50;;;;;;;40.70;17.37;98849.28;5092275;28;20054;-47
2023/09/07 10:20:17;;;;;;;5.32;3.00;;;;;;;40.21;18.10;98842.75;5093454;28;20024;-46
2023/09/07 10:22:45;;;;;;;4.10;2.58;;;;;;;39.90;18.43;98845.16;5093463;28;20288;-47
2023/09/07 10:25:21;;;;;;;6.65;2.60;;;;;;;40.22;18.42;98844.31;5092026;28;20447;-47
2023/09/07 10:27:47;;;;;;;14.82;3.17;;;;;;;40.44;18.23;98847.81;5093653;28;20050;-46
2023/09/07 10:30:15;;;;;;;6.90;2.92;;;;;;;39.97;18.21;98838.09;5093623;28;20027;-47
2023/09/07 10:32:41;;;;;;;12.50;3.00;;;;;;;39.15;18.54;98828.59;5093346;28;20020;-47
2023/09/07 10:35:19;;;;;;;6.20;2.63;;;;;;;38.96;19.18;98830.47;5093273;28;20264;-47
2023/09/07 10:37:48;;;;;;;8.15;3.03;;;;;;;39.43;19.20;98827.09;5092368;28;20111;-47
2023/09/07 10:40:23;;;;;;;9.05;3.05;;;;;;;40.25;18.81;98827.03;5093184;28;20012;-47
2023/09/07 10:42:49;;;;;;;4.80;2.63;;;;;;;40.81;18.16;98823.72;5091756;28;20030;-47
2023/09/07 10:45:16;;;;;;;9.30;3.20;;;;;;;40.82;17.99;98809.56;5091695;28;20020;-47
2023/09/07 10:47:44;;;;;;;7.60;3.08;;;;;;;40.80;18.76;98813.91;5093250;28;20099;-47
2023/09/07 10:50:13;;;;;;;10.18;2.50;;;;;;;41.47;18.29;98809.94;5092849;28;20062;-47
2023/09/07 10:52:43;;;;;;;4.13;2.63;;;;;;;41.50;17.64;98814.63;5092938;28;20038;-47
2023/09/07 10:55:11;;;;;;;5.88;2.70;;;;;;;40.57;17.76;98806.91;5092780;28;20047;-46
2023/09/07 10:57:44;;;;;;;5.28;2.90;;;;;;;40.04;18.67;98800.38;5074743;28;20111;-47
2023/09/07 11:00:11;;;;;;;16.05;4.32;;;;;;;39.60;19.45;98811.78;5091429;28;20027;-46
2023/09/07 11:02:38;;;;;;;4.43;2.50;;;;;;;39.45;18.61;98800.78;5074965;28;20032;-47
2023/09/07 11:05:04;;;;;;;4.75;2.78;;;;;;;39.12;19.17;98813.69;5091337;28;20025;-46
2023/09/07 11:07:30;;;;;;;4.05;2.58;;;;;;;38.87;19.58;98807.31;5092657;28;20020;-47
2023/09/07 11:09:56;;;;;;;5.63;2.67;;;;;;;38.56;20.23;98810.34;5091304;28;20020;-46
2023/09/07 11:12:22;;;;;;;9.50;2.95;;;;;;;38.60;20.00;98810.38;5091240;28;20085;-47
2023/09/07 11:14:50;;;;;;;7.15;3.00;;;;;;;38.70;19.94;98798.66;5092215;28;20472;-46
2023/09/07 11:17:16;;;;;;;6.57;2.90;;;;;;;38.92;19.98;98801.47;5092752;28;20027;-47
2023/09/07 11:19:42;;;;;;;7.93;2.92;;;;;;;39.04;19.53;98803.88;5092361;28;20035;-47
2023/09/07 11:22:12;;;;;;;8.65;2.55;;;;;;;39.40;19.73;98792.94;5092379;28;20397;-47
2023/09/07 11:24:38;;;;;;;4.88;2.80;;;;;;;39.74;18.95;98790.59;5092382;28;20031;-47
2023/09/07 11:27:03;;;;;;;10.65;3.10;;;;;;;39.73;18.75;98800.00;5092224;28;20283;-47
2023/09/07 11:29:33;;;;;;;5.45;2.63;;;;;;;39.49;19.17;98793.34;5091026;28;20417;-46
2023/09/07 11:32:09;;;;;;;21.25;4.07;;;;;;;39.69;19.15;98790.97;5092191;28;20049;-47